Gladstone, Australia
Current Conditions -  °F | °C
As of 11:00 AM on Wednesday 22 Oct 2014 (Local Time) from YGLA Reporting Station
Overcast Overcast  
Wind Chill: 75°   Ceiling: 5100
Heat Index: 75°   Visibility: 6mi
Dew Point: 54°   Wind: 13mph
Humidity: 47%   Direction: 150°SSE
Pressure: 30.18"   Gusts: NA
Location:  23.85°S, 151.25°E
Report Text: YGLA 220100Z AUTO 15011KT 9999 // SCT040 OVC051 24/12 Q1022
Loading
Personal Weather Stations






























Interactive Weather Map
Tropical Storm Tracking
New forecast layout! Learn more

10-Day Weather Forecast

Advertisements
Track Severe Weather on mobile